Iron Springs, Canada
Current Conditions -  °F | °C
As of 9:00 AM on Wednesday 28 Jan 2015 (Local Time) from CYQL Reporting Station
Haze Haze  
Wind Chill: 28°   Ceiling: 4200
Heat Index: 34°   Visibility: 6mi
Dew Point: 32°   Wind: 7mph
Humidity: 93%   Direction: 280°W
Pressure: 30.2"   Gusts: NA
Location:  49.93°N, 112.69°W
Report Text: CYQL 281600Z 28006KT 6SM BR FEW015 BKN042 01/M00 A3020 RMK SC2SC4 SLP250
Loading
Personal Weather Stations






























Interactive Weather Map New forecast layout! Learn more

10-Day Weather Forecast

Advertisements
Track Severe Weather on mobile